sensor_id;sensor_type;location;lat;lon;timestamp;temperature;humidity
42841;DHT22;28491;46.898;7.660;2022-08-25T00:01:41;16.10;67.80
42841;DHT22;28491;46.898;7.660;2022-08-25T00:04:09;16.10;67.80
42841;DHT22;28491;46.898;7.660;2022-08-25T00:06:37;16.10;67.90
42841;DHT22;28491;46.898;7.660;2022-08-25T00:09:04;16.10;67.70
42841;DHT22;28491;46.898;7.660;2022-08-25T00:11:31;16.10;67.50
42841;DHT22;28491;46.898;7.660;2022-08-25T00:14:01;16.10;67.80
42841;DHT22;28491;46.898;7.660;2022-08-25T00:16:26;16.10;67.90
42841;DHT22;28491;46.898;7.660;2022-08-25T00:18:57;15.90;68.10
42841;DHT22;28491;46.898;7.660;2022-08-25T00:21:23;15.90;68.10
42841;DHT22;28491;46.898;7.660;2022-08-25T00:23:49;16.00;68.00
42841;DHT22;28491;46.898;7.660;2022-08-25T00:26:16;16.00;67.90
42841;DHT22;28491;46.898;7.660;2022-08-25T00:28:43;15.90;67.90
42841;DHT22;28491;46.898;7.660;2022-08-25T00:31:14;15.90;68.20
42841;DHT22;28491;46.898;7.660;2022-08-25T00:33:41;15.90;68.50
42841;DHT22;28491;46.898;7.660;2022-08-25T00:36:07;15.90;68.40
42841;DHT22;28491;46.898;7.660;2022-08-25T00:38:33;15.90;68.40
42841;DHT22;28491;46.898;7.660;2022-08-25T00:40:59;15.80;68.40
42841;DHT22;28491;46.898;7.660;2022-08-25T00:46:06;15.80;68.40
42841;DHT22;28491;46.898;7.660;2022-08-25T00:48:31;15.80;68.70
42841;DHT22;28491;46.898;7.660;2022-08-25T00:50:57;15.80;68.70
42841;DHT22;28491;46.898;7.660;2022-08-25T00:53:23;15.80;68.20
42841;DHT22;28491;46.898;7.660;2022-08-25T00:55:49;15.80;68.40
42841;DHT22;28491;46.898;7.660;2022-08-25T00:58:19;15.80;68.20
42841;DHT22;28491;46.898;7.660;2022-08-25T01:00:48;15.80;68.40
42841;DHT22;28491;46.898;7.660;2022-08-25T01:03:14;15.70;68.60
42841;DHT22;28491;46.898;7.660;2022-08-25T01:05:40;15.70;68.50
42841;DHT22;28491;46.898;7.660;2022-08-25T01:08:08;15.70;68.30
42841;DHT22;28491;46.898;7.660;2022-08-25T01:10:35;15.80;68.40
42841;DHT22;28491;46.898;7.660;2022-08-25T01:13:31;15.80;68.50
42841;DHT22;28491;46.898;7.660;2022-08-25T01:15:55;15.70;68.50
42841;DHT22;28491;46.898;7.660;2022-08-25T01:18:22;15.70;68.60
42841;DHT22;28491;46.898;7.660;2022-08-25T01:20:55;15.70;68.60
42841;DHT22;28491;46.898;7.660;2022-08-25T01:23:22;15.60;68.80
42841;DHT22;28491;46.898;7.660;2022-08-25T01:28:37;15.70;68.70
42841;DHT22;28491;46.898;7.660;2022-08-25T01:31:23;15.70;68.30
42841;DHT22;28491;46.898;7.660;2022-08-25T01:33:49;15.70;68.90
42841;DHT22;28491;46.898;7.660;2022-08-25T01:36:17;15.60;69.10
42841;DHT22;28491;46.898;7.660;2022-08-25T01:38:43;15.50;68.80
42841;DHT22;28491;46.898;7.660;2022-08-25T01:41:08;15.40;69.10
42841;DHT22;28491;46.898;7.660;2022-08-25T01:43:37;15.40;69.00
42841;DHT22;28491;46.898;7.660;2022-08-25T01:46:03;15.30;69.30
42841;DHT22;28491;46.898;7.660;2022-08-25T01:48:29;15.30;69.40
42841;DHT22;28491;46.898;7.660;2022-08-25T01:50:57;15.30;69.80
42841;DHT22;28491;46.898;7.660;2022-08-25T01:53:28;15.30;69.60
42841;DHT22;28491;46.898;7.660;2022-08-25T01:55:54;15.30;69.50
42841;DHT22;28491;46.898;7.660;2022-08-25T01:58:31;15.10;69.80
42841;DHT22;28491;46.898;7.660;2022-08-25T02:01:00;15.10;69.90
42841;DHT22;28491;46.898;7.660;2022-08-25T02:03:28;15.10;70.00
42841;DHT22;28491;46.898;7.660;2022-08-25T02:05:54;15.20;69.90
42841;DHT22;28491;46.898;7.660;2022-08-25T02:08:20;15.20;69.90
42841;DHT22;28491;46.898;7.660;2022-08-25T02:10:47;15.10;70.20
42841;DHT22;28491;46.898;7.660;2022-08-25T02:13:13;15.10;70.00
42841;DHT22;28491;46.898;7.660;2022-08-25T02:15:44;14.90;70.10
42841;DHT22;28491;46.898;7.660;2022-08-25T02:18:11;14.90;70.50
42841;DHT22;28491;46.898;7.660;2022-08-25T02:20:37;14.80;70.60
42841;DHT22;28491;46.898;7.660;2022-08-25T02:23:03;14.70;71.00
42841;DHT22;28491;46.898;7.660;2022-08-25T02:25:29;14.60;71.30
42841;DHT22;28491;46.898;7.660;2022-08-25T02:27:55;14.60;71.30
42841;DHT22;28491;46.898;7.660;2022-08-25T02:30:20;14.60;71.30
42841;DHT22;28491;46.898;7.660;2022-08-25T02:32:46;14.80;71.20
42841;DHT22;28491;46.898;7.660;2022-08-25T02:35:11;14.70;71.00
42841;DHT22;28491;46.898;7.660;2022-08-25T02:37:37;14.80;70.90
42841;DHT22;28491;46.898;7.660;2022-08-25T02:40:03;14.80;70.80
42841;DHT22;28491;46.898;7.660;2022-08-25T02:42:29;14.80;70.70
42841;DHT22;28491;46.898;7.660;2022-08-25T02:44:55;14.60;71.00
42841;DHT22;28491;46.898;7.660;2022-08-25T02:47:21;14.70;71.20
42841;DHT22;28491;46.898;7.660;2022-08-25T02:49:47;14.60;71.30
42841;DHT22;28491;46.898;7.660;2022-08-25T02:52:14;14.60;71.40
42841;DHT22;28491;46.898;7.660;2022-08-25T02:54:40;14.60;71.30
42841;DHT22;28491;46.898;7.660;2022-08-25T02:57:05;14.60;71.20
42841;DHT22;28491;46.898;7.660;2022-08-25T02:59:31;14.50;71.40
42841;DHT22;28491;46.898;7.660;2022-08-25T03:01:57;14.50;71.50
42841;DHT22;28491;46.898;7.660;2022-08-25T03:04:22;14.50;71.50
42841;DHT22;28491;46.898;7.660;2022-08-25T03:06:48;14.50;71.50
42841;DHT22;28491;46.898;7.660;2022-08-25T03:09:14;14.40;71.80
42841;DHT22;28491;46.898;7.660;2022-08-25T03:11:40;14.40;71.70
42841;DHT22;28491;46.898;7.660;2022-08-25T03:14:07;14.50;71.70
42841;DHT22;28491;46.898;7.660;2022-08-25T03:16:35;14.60;71.90
42841;DHT22;28491;46.898;7.660;2022-08-25T03:19:00;14.60;71.40
42841;DHT22;28491;46.898;7.660;2022-08-25T03:21:26;14.60;71.40
42841;DHT22;28491;46.898;7.660;2022-08-25T03:23:53;14.70;71.40
42841;DHT22;28491;46.898;7.660;2022-08-25T03:26:19;14.70;71.10
42841;DHT22;28491;46.898;7.660;2022-08-25T03:29:03;14.70;70.90
42841;DHT22;28491;46.898;7.660;2022-08-25T03:31:31;14.80;70.70
42841;DHT22;28491;46.898;7.660;2022-08-25T03:33:57;14.80;70.70
42841;DHT22;28491;46.898;7.660;2022-08-25T03:36:24;14.70;70.60
42841;DHT22;28491;46.898;7.660;2022-08-25T03:38:50;14.70;70.70
42841;DHT22;28491;46.898;7.660;2022-08-25T03:41:20;14.70;70.80
42841;DHT22;28491;46.898;7.660;2022-08-25T03:43:47;14.50;71.10
42841;DHT22;28491;46.898;7.660;2022-08-25T03:46:21;14.50;71.30
42841;DHT22;28491;46.898;7.660;2022-08-25T03:48:48;14.40;71.50
42841;DHT22;28491;46.898;7.660;2022-08-25T03:51:25;14.40;71.90
42841;DHT22;28491;46.898;7.660;2022-08-25T03:53:52;14.30;71.70
42841;DHT22;28491;46.898;7.660;2022-08-25T03:56:18;14.40;71.90
42841;DHT22;28491;46.898;7.660;2022-08-25T03:58:45;14.40;71.70
42841;DHT22;28491;46.898;7.660;2022-08-25T04:01:10;14.40;72.00
42841;DHT22;28491;46.898;7.660;2022-08-25T04:03:36;14.40;71.90
42841;DHT22;28491;46.898;7.660;2022-08-25T04:06:03;14.40;71.50
42841;DHT22;28491;46.898;7.660;2022-08-25T04:08:30;14.30;71.60
42841;DHT22;28491;46.898;7.660;2022-08-25T04:10:55;14.40;71.30
42841;DHT22;28491;46.898;7.660;2022-08-25T04:13:21;14.40;71.40
42841;DHT22;28491;46.898;7.660;2022-08-25T04:15:47;14.30;71.50
42841;DHT22;28491;46.898;7.660;2022-08-25T04:18:13;14.30;71.60
42841;DHT22;28491;46.898;7.660;2022-08-25T04:20:40;14.30;71.60
42841;DHT22;28491;46.898;7.660;2022-08-25T04:23:07;14.30;71.80
42841;DHT22;28491;46.898;7.660;2022-08-25T04:25:32;14.40;71.60
42841;DHT22;28491;46.898;7.660;2022-08-25T04:27:58;14.30;71.70
42841;DHT22;28491;46.898;7.660;2022-08-25T04:30:23;14.30;71.80
42841;DHT22;28491;46.898;7.660;2022-08-25T04:32:49;14.30;71.90
42841;DHT22;28491;46.898;7.660;2022-08-25T04:35:15;14.30;72.20
42841;DHT22;28491;46.898;7.660;2022-08-25T04:37:40;14.20;72.00
42841;DHT22;28491;46.898;7.660;2022-08-25T04:40:07;14.30;72.10
42841;DHT22;28491;46.898;7.660;2022-08-25T04:42:33;14.20;72.00
42841;DHT22;28491;46.898;7.660;2022-08-25T04:44:58;14.20;71.80
42841;DHT22;28491;46.898;7.660;2022-08-25T04:47:26;14.20;72.10
42841;DHT22;28491;46.898;7.660;2022-08-25T04:49:52;14.20;72.10
42841;DHT22;28491;46.898;7.660;2022-08-25T04:52:18;14.30;72.10
42841;DHT22;28491;46.898;7.660;2022-08-25T04:54:44;14.30;71.80
42841;DHT22;28491;46.898;7.660;2022-08-25T04:57:10;14.30;72.00
42841;DHT22;28491;46.898;7.660;2022-08-25T04:59:36;14.30;72.10
42841;DHT22;28491;46.898;7.660;2022-08-25T05:02:02;14.30;71.90
42841;DHT22;28491;46.898;7.660;2022-08-25T05:04:30;14.30;71.90
42841;DHT22;28491;46.898;7.660;2022-08-25T05:06:56;14.30;72.10
42841;DHT22;28491;46.898;7.660;2022-08-25T05:09:24;14.40;71.70
42841;DHT22;28491;46.898;7.660;2022-08-25T05:11:49;14.50;71.40
42841;DHT22;28491;46.898;7.660;2022-08-25T05:14:15;14.50;71.50
42841;DHT22;28491;46.898;7.660;2022-08-25T05:16:45;14.60;71.00
42841;DHT22;28491;46.898;7.660;2022-08-25T05:19:11;14.70;70.90
42841;DHT22;28491;46.898;7.660;2022-08-25T05:21:37;14.80;71.10
42841;DHT22;28491;46.898;7.660;2022-08-25T05:24:03;14.80;70.80
42841;DHT22;28491;46.898;7.660;2022-08-25T05:26:30;14.80;70.70
42841;DHT22;28491;46.898;7.660;2022-08-25T05:28:57;14.80;70.90
42841;DHT22;28491;46.898;7.660;2022-08-25T05:31:25;14.80;71.00
42841;DHT22;28491;46.898;7.660;2022-08-25T05:33:51;14.90;70.90
42841;DHT22;28491;46.898;7.660;2022-08-25T05:36:18;14.90;71.40
42841;DHT22;28491;46.898;7.660;2022-08-25T05:38:44;15.00;71.30
42841;DHT22;28491;46.898;7.660;2022-08-25T05:41:13;15.10;70.90
42841;DHT22;28491;46.898;7.660;2022-08-25T05:43:41;15.20;70.70
42841;DHT22;28491;46.898;7.660;2022-08-25T05:46:08;15.40;70.40
42841;DHT22;28491;46.898;7.660;2022-08-25T05:48:34;16.20;68.60
42841;DHT22;28491;46.898;7.660;2022-08-25T05:51:02;18.10;63.70
42841;DHT22;28491;46.898;7.660;2022-08-25T05:53:29;19.60;60.90
42841;DHT22;28491;46.898;7.660;2022-08-25T05:55:56;20.60;52.70
42841;DHT22;28491;46.898;7.660;2022-08-25T05:58:23;21.00;50.30
42841;DHT22;28491;46.898;7.660;2022-08-25T06:00:50;21.30;46.90
42841;DHT22;28491;46.898;7.660;2022-08-25T06:03:16;21.50;44.50
42841;DHT22;28491;46.898;7.660;2022-08-25T06:05:42;21.90;44.00
42841;DHT22;28491;46.898;7.660;2022-08-25T06:08:08;22.10;39.30
42841;DHT22;28491;46.898;7.660;2022-08-25T06:10:35;22.40;39.10
42841;DHT22;28491;46.898;7.660;2022-08-25T06:13:01;22.70;39.60
42841;DHT22;28491;46.898;7.660;2022-08-25T06:15:27;22.60;37.00
42841;DHT22;28491;46.898;7.660;2022-08-25T06:17:53;22.80;39.10
42841;DHT22;28491;46.898;7.660;2022-08-25T06:20:23;23.30;37.60
42841;DHT22;28491;46.898;7.660;2022-08-25T06:22:49;23.60;35.90
42841;DHT22;28491;46.898;7.660;2022-08-25T06:25:18;23.70;35.30
42841;DHT22;28491;46.898;7.660;2022-08-25T06:27:45;23.70;36.40
42841;DHT22;28491;46.898;7.660;2022-08-25T06:30:12;24.00;34.00
42841;DHT22;28491;46.898;7.660;2022-08-25T06:32:41;24.10;32.70
42841;DHT22;28491;46.898;7.660;2022-08-25T06:35:09;24.40;31.80
42841;DHT22;28491;46.898;7.660;2022-08-25T06:37:36;24.40;33.30
42841;DHT22;28491;46.898;7.660;2022-08-25T06:40:03;24.60;31.90
42841;DHT22;28491;46.898;7.660;2022-08-25T06:42:29;25.00;32.30
42841;DHT22;28491;46.898;7.660;2022-08-25T06:44:55;25.00;31.30
42841;DHT22;28491;46.898;7.660;2022-08-25T06:47:20;25.10;32.00
42841;DHT22;28491;46.898;7.660;2022-08-25T06:49:46;25.10;31.40
42841;DHT22;28491;46.898;7.660;2022-08-25T06:52:12;25.30;31.90
42841;DHT22;28491;46.898;7.660;2022-08-25T06:54:39;25.50;31.60
42841;DHT22;28491;46.898;7.660;2022-08-25T06:57:05;25.20;32.10
42841;DHT22;28491;46.898;7.660;2022-08-25T06:59:32;25.40;32.30
42841;DHT22;28491;46.898;7.660;2022-08-25T07:01:59;25.70;32.40
42841;DHT22;28491;46.898;7.660;2022-08-25T07:04:25;25.50;31.80
42841;DHT22;28491;46.898;7.660;2022-08-25T07:06:51;25.80;34.00
42841;DHT22;28491;46.898;7.660;2022-08-25T07:09:17;25.70;32.20
42841;DHT22;28491;46.898;7.660;2022-08-25T07:11:43;26.40;34.10
42841;DHT22;28491;46.898;7.660;2022-08-25T07:14:11;26.80;33.80
42841;DHT22;28491;46.898;7.660;2022-08-25T07:16:37;27.20;32.70
42841;DHT22;28491;46.898;7.660;2022-08-25T07:19:04;26.80;32.00
42841;DHT22;28491;46.898;7.660;2022-08-25T07:21:31;27.00;31.90
42841;DHT22;28491;46.898;7.660;2022-08-25T07:23:58;27.20;30.90
42841;DHT22;28491;46.898;7.660;2022-08-25T07:26:27;27.10;31.60
42841;DHT22;28491;46.898;7.660;2022-08-25T07:28:54;27.40;29.80
42841;DHT22;28491;46.898;7.660;2022-08-25T07:31:20;27.50;31.70
42841;DHT22;28491;46.898;7.660;2022-08-25T07:33:45;27.50;32.30
42841;DHT22;28491;46.898;7.660;2022-08-25T07:36:30;27.90;32.60
42841;DHT22;28491;46.898;7.660;2022-08-25T07:38:57;26.80;32.70
42841;DHT22;28491;46.898;7.660;2022-08-25T07:41:23;25.70;34.50
42841;DHT22;28491;46.898;7.660;2022-08-25T07:43:48;24.90;36.00
42841;DHT22;28491;46.898;7.660;2022-08-25T07:46:14;24.30;38.30
42841;DHT22;28491;46.898;7.660;2022-08-25T07:48:40;23.80;43.30
42841;DHT22;28491;46.898;7.660;2022-08-25T07:51:07;23.60;44.90
42841;DHT22;28491;46.898;7.660;2022-08-25T07:53:34;23.50;44.50
42841;DHT22;28491;46.898;7.660;2022-08-25T07:55:59;23.40;45.60
42841;DHT22;28491;46.898;7.660;2022-08-25T07:58:25;23.20;48.50
42841;DHT22;28491;46.898;7.660;2022-08-25T08:00:50;23.20;49.80
42841;DHT22;28491;46.898;7.660;2022-08-25T08:03:18;23.20;52.80
42841;DHT22;28491;46.898;7.660;2022-08-25T08:05:43;23.30;53.70
42841;DHT22;28491;46.898;7.660;2022-08-25T08:08:09;23.40;53.30
42841;DHT22;28491;46.898;7.660;2022-08-25T08:10:38;23.40;53.70
42841;DHT22;28491;46.898;7.660;2022-08-25T08:13:04;23.40;53.70
42841;DHT22;28491;46.898;7.660;2022-08-25T08:15:30;23.60;47.10
42841;DHT22;28491;46.898;7.660;2022-08-25T08:17:57;23.70;52.80
42841;DHT22;28491;46.898;7.660;2022-08-25T08:20:23;23.70;54.40
42841;DHT22;28491;46.898;7.660;2022-08-25T08:22:49;23.70;56.20
42841;DHT22;28491;46.898;7.660;2022-08-25T08:25:14;23.80;53.90
42841;DHT22;28491;46.898;7.660;2022-08-25T08:27:40;23.80;50.00
42841;DHT22;28491;46.898;7.660;2022-08-25T08:30:07;24.00;48.80
42841;DHT22;28491;46.898;7.660;2022-08-25T08:32:33;23.90;47.40
42841;DHT22;28491;46.898;7.660;2022-08-25T08:34:59;24.10;48.20
42841;DHT22;28491;46.898;7.660;2022-08-25T08:37:24;24.30;46.00
42841;DHT22;28491;46.898;7.660;2022-08-25T08:39:50;24.20;45.70
42841;DHT22;28491;46.898;7.660;2022-08-25T08:53:40;24.70;40.10
42841;DHT22;28491;46.898;7.660;2022-08-25T08:56:14;24.90;43.40
42841;DHT22;28491;46.898;7.660;2022-08-25T08:58:58;25.00;46.80
42841;DHT22;28491;46.898;7.660;2022-08-25T09:01:28;25.00;48.50
42841;DHT22;28491;46.898;7.660;2022-08-25T09:04:08;25.00;41.00
42841;DHT22;28491;46.898;7.660;2022-08-25T09:06:40;25.10;41.50
42841;DHT22;28491;46.898;7.660;2022-08-25T09:09:08;25.00;42.90
42841;DHT22;28491;46.898;7.660;2022-08-25T09:11:53;25.20;49.90
42841;DHT22;28491;46.898;7.660;2022-08-25T09:14:44;25.10;45.00
42841;DHT22;28491;46.898;7.660;2022-08-25T09:28:27;25.70;46.40
42841;DHT22;28491;46.898;7.660;2022-08-25T09:33:46;25.70;42.80
42841;DHT22;28491;46.898;7.660;2022-08-25T09:36:11;25.70;39.70
42841;DHT22;28491;46.898;7.660;2022-08-25T09:38:37;25.70;39.30
42841;DHT22;28491;46.898;7.660;2022-08-25T09:41:03;25.70;44.00
42841;DHT22;28491;46.898;7.660;2022-08-25T09:43:33;25.90;47.10
42841;DHT22;28491;46.898;7.660;2022-08-25T09:51:32;26.20;39.20
42841;DHT22;28491;46.898;7.660;2022-08-25T09:54:17;26.20;38.70
42841;DHT22;28491;46.898;7.660;2022-08-25T09:56:58;26.10;40.20
42841;DHT22;28491;46.898;7.660;2022-08-25T09:59:31;26.40;40.50
42841;DHT22;28491;46.898;7.660;2022-08-25T10:02:01;26.60;48.20
42841;DHT22;28491;46.898;7.660;2022-08-25T10:04:38;26.70;48.50
42841;DHT22;28491;46.898;7.660;2022-08-25T10:07:34;26.90;45.40
42841;DHT22;28491;46.898;7.660;2022-08-25T10:10:16;27.00;42.60
42841;DHT22;28491;46.898;7.660;2022-08-25T10:12:45;27.00;41.40
42841;DHT22;28491;46.898;7.660;2022-08-25T10:17:42;27.20;41.00
42841;DHT22;28491;46.898;7.660;2022-08-25T10:20:24;27.20;40.60
42841;DHT22;28491;46.898;7.660;2022-08-25T10:22:50;27.20;43.20
42841;DHT22;28491;46.898;7.660;2022-08-25T10:25:25;27.30;44.70
42841;DHT22;28491;46.898;7.660;2022-08-25T10:36:20;27.50;44.80
42841;DHT22;28491;46.898;7.660;2022-08-25T10:38:54;27.70;41.50
42841;DHT22;28491;46.898;7.660;2022-08-25T10:49:54;28.40;40.70
42841;DHT22;28491;46.898;7.660;2022-08-25T10:52:29;28.50;38.50
42841;DHT22;28491;46.898;7.660;2022-08-25T10:55:16;28.60;40.00
42841;DHT22;28491;46.898;7.660;2022-08-25T11:00:20;28.80;40.70
42841;DHT22;28491;46.898;7.660;2022-08-25T11:05:26;29.00;38.40
42841;DHT22;28491;46.898;7.660;2022-08-25T11:07:59;29.00;37.40
42841;DHT22;28491;46.898;7.660;2022-08-25T11:10:51;29.10;40.00
42841;DHT22;28491;46.898;7.660;2022-08-25T11:16:00;29.20;38.90
42841;DHT22;28491;46.898;7.660;2022-08-25T11:18:27;29.30;39.40
42841;DHT22;28491;46.898;7.660;2022-08-25T11:21:10;29.50;40.60
42841;DHT22;28491;46.898;7.660;2022-08-25T11:23:45;29.40;37.10
42841;DHT22;28491;46.898;7.660;2022-08-25T11:26:18;29.50;37.90
42841;DHT22;28491;46.898;7.660;2022-08-25T11:29:04;29.60;37.20
42841;DHT22;28491;46.898;7.660;2022-08-25T11:31:36;29.50;34.90
42841;DHT22;28491;46.898;7.660;2022-08-25T11:34:03;29.60;37.00
42841;DHT22;28491;46.898;7.660;2022-08-25T11:36:37;29.60;35.80
42841;DHT22;28491;46.898;7.660;2022-08-25T11:47:38;29.70;37.10
42841;DHT22;28491;46.898;7.660;2022-08-25T11:50:32;29.70;37.50
42841;DHT22;28491;46.898;7.660;2022-08-25T11:58:25;29.70;36.50
42841;DHT22;28491;46.898;7.660;2022-08-25T12:00:55;29.70;35.10
42841;DHT22;28491;46.898;7.660;2022-08-25T12:06:24;29.90;37.20
42841;DHT22;28491;46.898;7.660;2022-08-25T12:08:53;29.80;32.70
42841;DHT22;28491;46.898;7.660;2022-08-25T12:14:07;29.90;35.60
42841;DHT22;28491;46.898;7.660;2022-08-25T12:16:40;29.90;36.50
42841;DHT22;28491;46.898;7.660;2022-08-25T12:21:51;29.90;37.10
42841;DHT22;28491;46.898;7.660;2022-08-25T12:24:36;29.90;35.90
42841;DHT22;28491;46.898;7.660;2022-08-25T12:33:35;30.10;35.20
42841;DHT22;28491;46.898;7.660;2022-08-25T12:36:05;29.90;31.60
42841;DHT22;28491;46.898;7.660;2022-08-25T12:38:41;29.90;34.30
42841;DHT22;28491;46.898;7.660;2022-08-25T12:43:46;30.20;33.30
42841;DHT22;28491;46.898;7.660;2022-08-25T12:59:57;29.90;34.90
42841;DHT22;28491;46.898;7.660;2022-08-25T13:02:48;29.80;30.40
42841;DHT22;28491;46.898;7.660;2022-08-25T13:08:35;29.80;34.40
42841;DHT22;28491;46.898;7.660;2022-08-25T13:11:39;29.60;32.80
42841;DHT22;28491;46.898;7.660;2022-08-25T13:14:24;29.70;33.90
42841;DHT22;28491;46.898;7.660;2022-08-25T13:16:55;29.60;31.70
42841;DHT22;28491;46.898;7.660;2022-08-25T13:19:22;29.40;31.00
42841;DHT22;28491;46.898;7.660;2022-08-25T13:21:49;29.60;34.10
42841;DHT22;28491;46.898;7.660;2022-08-25T13:24:27;29.70;32.30
42841;DHT22;28491;46.898;7.660;2022-08-25T13:26:59;29.80;35.20
42841;DHT22;28491;46.898;7.660;2022-08-25T13:29:28;29.70;33.20
42841;DHT22;28491;46.898;7.660;2022-08-25T13:34:23;29.70;33.40
42841;DHT22;28491;46.898;7.660;2022-08-25T13:36:50;29.80;33.50
42841;DHT22;28491;46.898;7.660;2022-08-25T13:39:35;29.70;33.20
42841;DHT22;28491;46.898;7.660;2022-08-25T13:42:04;29.80;31.90
42841;DHT22;28491;46.898;7.660;2022-08-25T13:44:34;29.80;34.00
42841;DHT22;28491;46.898;7.660;2022-08-25T13:47:05;29.90;34.60
42841;DHT22;28491;46.898;7.660;2022-08-25T13:49:31;29.70;32.50
42841;DHT22;28491;46.898;7.660;2022-08-25T13:51:57;29.90;33.50
42841;DHT22;28491;46.898;7.660;2022-08-25T13:54:26;30.00;35.40
42841;DHT22;28491;46.898;7.660;2022-08-25T13:56:52;30.00;33.90
42841;DHT22;28491;46.898;7.660;2022-08-25T13:59:24;30.00;34.60
42841;DHT22;28491;46.898;7.660;2022-08-25T14:01:52;29.90;33.50
42841;DHT22;28491;46.898;7.660;2022-08-25T14:04:22;30.00;34.50
42841;DHT22;28491;46.898;7.660;2022-08-25T14:09:55;29.90;34.50
42841;DHT22;28491;46.898;7.660;2022-08-25T14:12:42;29.90;33.90
42841;DHT22;28491;46.898;7.660;2022-08-25T14:20:36;29.80;34.70
42841;DHT22;28491;46.898;7.660;2022-08-25T14:23:09;29.90;34.60
42841;DHT22;28491;46.898;7.660;2022-08-25T14:25:38;29.90;33.80
42841;DHT22;28491;46.898;7.660;2022-08-25T14:28:09;29.80;33.90
42841;DHT22;28491;46.898;7.660;2022-08-25T14:30:39;29.70;33.80
42841;DHT22;28491;46.898;7.660;2022-08-25T14:33:06;29.70;35.50
42841;DHT22;28491;46.898;7.660;2022-08-25T14:35:33;29.60;35.10
42841;DHT22;28491;46.898;7.660;2022-08-25T14:38:01;29.40;33.60
42841;DHT22;28491;46.898;7.660;2022-08-25T14:40:27;29.40;33.60
42841;DHT22;28491;46.898;7.660;2022-08-25T14:42:52;29.40;35.50
42841;DHT22;28491;46.898;7.660;2022-08-25T14:45:18;29.30;35.20
42841;DHT22;28491;46.898;7.660;2022-08-25T14:47:45;29.40;33.90
42841;DHT22;28491;46.898;7.660;2022-08-25T14:50:12;29.40;32.70
42841;DHT22;28491;46.898;7.660;2022-08-25T14:52:40;29.30;33.00
42841;DHT22;28491;46.898;7.660;2022-08-25T14:55:07;29.20;33.50
42841;DHT22;28491;46.898;7.660;2022-08-25T14:57:33;29.20;33.90
42841;DHT22;28491;46.898;7.660;2022-08-25T14:59:59;29.20;33.50
42841;DHT22;28491;46.898;7.660;2022-08-25T15:02:25;29.20;34.30
42841;DHT22;28491;46.898;7.660;2022-08-25T15:05:02;29.20;33.00
42841;DHT22;28491;46.898;7.660;2022-08-25T15:07:31;29.10;32.80
42841;DHT22;28491;46.898;7.660;2022-08-25T15:10:16;29.00;32.30
42841;DHT22;28491;46.898;7.660;2022-08-25T15:12:41;29.10;34.10
42841;DHT22;28491;46.898;7.660;2022-08-25T15:15:08;29.00;32.80
42841;DHT22;28491;46.898;7.660;2022-08-25T15:17:34;28.90;32.10
42841;DHT22;28491;46.898;7.660;2022-08-25T15:20:00;28.90;33.00
42841;DHT22;28491;46.898;7.660;2022-08-25T15:22:26;28.90;33.10
42841;DHT22;28491;46.898;7.660;2022-08-25T15:24:51;28.80;33.00
42841;DHT22;28491;46.898;7.660;2022-08-25T15:27:18;28.90;33.00
42841;DHT22;28491;46.898;7.660;2022-08-25T15:29:44;28.80;32.40
42841;DHT22;28491;46.898;7.660;2022-08-25T15:32:10;28.70;33.50
42841;DHT22;28491;46.898;7.660;2022-08-25T15:34:36;28.70;33.40
42841;DHT22;28491;46.898;7.660;2022-08-25T15:37:11;28.60;33.00
42841;DHT22;28491;46.898;7.660;2022-08-25T15:39:38;28.60;34.10
42841;DHT22;28491;46.898;7.660;2022-08-25T15:42:04;28.60;35.20
42841;DHT22;28491;46.898;7.660;2022-08-25T15:44:30;28.50;34.60
42841;DHT22;28491;46.898;7.660;2022-08-25T15:46:57;28.50;33.30
42841;DHT22;28491;46.898;7.660;2022-08-25T15:49:23;28.40;32.70
42841;DHT22;28491;46.898;7.660;2022-08-25T15:51:51;28.40;32.60
42841;DHT22;28491;46.898;7.660;2022-08-25T15:54:17;28.30;31.60
42841;DHT22;28491;46.898;7.660;2022-08-25T15:56:42;28.30;32.00
42841;DHT22;28491;46.898;7.660;2022-08-25T15:59:09;28.30;32.80
42841;DHT22;28491;46.898;7.660;2022-08-25T16:01:34;28.30;33.70
42841;DHT22;28491;46.898;7.660;2022-08-25T16:04:00;28.20;34.80
42841;DHT22;28491;46.898;7.660;2022-08-25T16:06:26;28.10;34.60
42841;DHT22;28491;46.898;7.660;2022-08-25T16:08:52;28.10;35.10
42841;DHT22;28491;46.898;7.660;2022-08-25T16:11:21;28.00;33.50
42841;DHT22;28491;46.898;7.660;2022-08-25T16:13:48;28.00;34.30
42841;DHT22;28491;46.898;7.660;2022-08-25T16:16:15;27.90;34.00
42841;DHT22;28491;46.898;7.660;2022-08-25T16:18:41;27.90;33.30
42841;DHT22;28491;46.898;7.660;2022-08-25T16:21:10;27.90;34.80
42841;DHT22;28491;46.898;7.660;2022-08-25T16:23:36;27.80;35.90
42841;DHT22;28491;46.898;7.660;2022-08-25T16:26:04;27.70;35.50
42841;DHT22;28491;46.898;7.660;2022-08-25T16:28:30;27.70;36.10
42841;DHT22;28491;46.898;7.660;2022-08-25T16:30:55;27.50;33.80
42841;DHT22;28491;46.898;7.660;2022-08-25T16:33:21;27.40;35.30
42841;DHT22;28491;46.898;7.660;2022-08-25T16:35:47;27.40;36.80
42841;DHT22;28491;46.898;7.660;2022-08-25T16:38:12;27.40;36.60
42841;DHT22;28491;46.898;7.660;2022-08-25T16:40:40;27.30;34.90
42841;DHT22;28491;46.898;7.660;2022-08-25T16:43:07;27.30;38.60
42841;DHT22;28491;46.898;7.660;2022-08-25T16:45:32;27.10;39.20
42841;DHT22;28491;46.898;7.660;2022-08-25T16:47:58;27.00;35.30
42841;DHT22;28491;46.898;7.660;2022-08-25T16:50:24;26.90;34.70
42841;DHT22;28491;46.898;7.660;2022-08-25T16:52:49;26.90;34.60
42841;DHT22;28491;46.898;7.660;2022-08-25T16:55:34;26.80;36.50
42841;DHT22;28491;46.898;7.660;2022-08-25T16:58:00;26.70;35.00
42841;DHT22;28491;46.898;7.660;2022-08-25T17:00:28;26.60;36.80
42841;DHT22;28491;46.898;7.660;2022-08-25T17:02:58;26.50;36.00
42841;DHT22;28491;46.898;7.660;2022-08-25T17:05:27;26.50;37.70
42841;DHT22;28491;46.898;7.660;2022-08-25T17:07:54;26.50;38.30
42841;DHT22;28491;46.898;7.660;2022-08-25T17:10:41;26.40;40.10
42841;DHT22;28491;46.898;7.660;2022-08-25T17:13:06;26.30;40.00
42841;DHT22;28491;46.898;7.660;2022-08-25T17:15:32;26.30;40.50
42841;DHT22;28491;46.898;7.660;2022-08-25T17:17:58;26.20;40.20
42841;DHT22;28491;46.898;7.660;2022-08-25T17:20:24;26.20;43.20
42841;DHT22;28491;46.898;7.660;2022-08-25T17:22:49;25.90;45.60
42841;DHT22;28491;46.898;7.660;2022-08-25T17:25:16;25.90;42.50
42841;DHT22;28491;46.898;7.660;2022-08-25T17:27:41;25.70;43.90
42841;DHT22;28491;46.898;7.660;2022-08-25T17:30:08;25.50;42.60
42841;DHT22;28491;46.898;7.660;2022-08-25T17:32:33;25.40;45.80
42841;DHT22;28491;46.898;7.660;2022-08-25T17:34:59;25.30;45.50
42841;DHT22;28491;46.898;7.660;2022-08-25T17:37:24;25.30;46.80
42841;DHT22;28491;46.898;7.660;2022-08-25T17:39:51;25.20;49.10
42841;DHT22;28491;46.898;7.660;2022-08-25T17:42:17;25.10;47.20